createdAt,value
2019-01-03T00:01:24.971Z,1.00
2019-01-03T00:04:12.710Z,1.00
2019-01-03T00:07:16.966Z,1.00
2019-01-03T00:10:04.698Z,1.00
2019-01-03T00:12:52.666Z,1.00
2019-01-03T00:15:41.911Z,1.00
2019-01-03T00:18:29.696Z,1.00
2019-01-03T00:21:17.787Z,1.00
2019-01-03T00:24:13.919Z,1.00
2019-01-03T00:27:05.908Z,1.00
2019-01-03T00:29:54.440Z,1.00
2019-01-03T00:32:42.207Z,1.00
2019-01-03T00:53:43.309Z,1.00
2019-01-03T00:56:31.153Z,1.00
2019-01-03T00:59:24.834Z,1.00
2019-01-03T01:02:12.579Z,1.00
2019-01-03T01:05:00.343Z,1.00
2019-01-03T01:07:52.574Z,1.00
2019-01-03T01:10:50.852Z,1.00
2019-01-03T01:13:46.004Z,1.00
2019-01-03T01:16:35.461Z,1.00
2019-01-03T01:19:36.467Z,1.00
2019-01-03T01:22:25.578Z,1.00
2019-01-03T01:25:26.869Z,1.00
2019-01-03T01:28:25.324Z,1.00
2019-01-03T01:31:20.907Z,1.00
2019-01-03T01:34:08.422Z,1.00
2019-01-03T01:37:03.208Z,1.00
2019-01-03T01:39:50.873Z,1.00
2019-01-03T01:42:46.268Z,1.00
2019-01-03T01:45:40.151Z,1.00
2019-01-03T01:48:35.365Z,1.00
2019-01-03T01:51:24.725Z,1.00
2019-01-03T01:54:29.036Z,1.00
2019-01-03T01:57:21.638Z,1.00
2019-01-03T02:00:21.516Z,1.00
2019-01-03T02:03:18.900Z,1.00
2019-01-03T02:06:10.841Z,1.00
2019-01-03T02:09:00.041Z,1.00
2019-01-03T02:11:49.128Z,1.00
2019-01-03T02:14:31.353Z,1.00
2019-01-03T02:17:23.489Z,1.00
2019-01-03T02:20:12.313Z,1.00
2019-01-03T02:23:13.908Z,1.00
2019-01-03T02:26:01.497Z,1.00
2019-01-03T02:28:50.823Z,1.00
2019-01-03T02:31:38.175Z,1.00
2019-01-03T02:34:36.515Z,1.00
2019-01-03T02:37:44.852Z,1.00
2019-01-03T02:40:32.717Z,1.00
2019-01-03T02:43:18.505Z,1.00
2019-01-03T02:46:06.227Z,1.00
2019-01-03T02:48:53.938Z,1.00
2019-01-03T02:52:00.405Z,1.00
2019-01-03T02:54:48.351Z,1.00
2019-01-03T02:57:33.199Z,1.00
2019-01-03T03:00:22.648Z,1.00
2019-01-03T03:03:07.295Z,1.00
2019-01-03T03:06:05.321Z,1.00
2019-01-03T03:09:06.590Z,1.00
2019-01-03T03:11:55.676Z,1.00
2019-01-03T03:14:43.639Z,1.00
2019-01-03T03:17:31.262Z,1.00
2019-01-03T03:20:18.969Z,1.00
2019-01-03T03:23:08.126Z,1.00
2019-01-03T03:25:55.977Z,1.00
2019-01-03T03:29:00.395Z,1.00
2019-01-03T03:32:01.591Z,1.00
2019-01-03T03:34:51.277Z,1.00
2019-01-03T03:37:43.433Z,1.00
2019-01-03T03:40:32.668Z,1.00
2019-01-03T03:43:22.525Z,1.00
2019-01-03T03:46:23.752Z,1.00
2019-01-03T03:49:11.886Z,1.00
2019-01-03T03:52:08.286Z,1.00
2019-01-03T03:55:06.563Z,1.00
2019-01-03T03:58:04.519Z,1.00
2019-01-03T04:00:56.751Z,1.00
2019-01-03T04:03:44.436Z,1.00
2019-01-03T04:06:39.722Z,1.00
2019-01-03T04:09:23.885Z,1.00
2019-01-03T04:12:16.112Z,1.00
2019-01-03T04:15:11.763Z,1.00
2019-01-03T04:17:59.809Z,1.00
2019-01-03T04:20:54.968Z,1.00
2019-01-03T04:23:42.956Z,1.00
2019-01-03T04:26:32.342Z,1.00
2019-01-03T04:29:34.038Z,1.00
2019-01-03T04:32:25.941Z,1.00
2019-01-03T04:35:15.631Z,1.00
2019-01-03T04:37:59.193Z,1.00
2019-01-03T04:40:57.265Z,1.00
2019-01-03T04:43:47.760Z,1.00
2019-01-03T04:46:45.885Z,1.00
2019-01-03T04:49:41.848Z,1.00
2019-01-03T04:52:29.475Z,1.00
2019-01-03T04:55:18.299Z,1.00
2019-01-03T04:58:06.120Z,1.00
2019-01-03T05:01:07.271Z,1.00
2019-01-03T05:03:56.435Z,1.00
2019-01-03T05:06:50.073Z,1.00
2019-01-03T05:09:51.331Z,1.00
2019-01-03T05:12:36.110Z,1.00
2019-01-03T05:15:28.358Z,1.00
2019-01-03T05:25:37.987Z,1.00
2019-01-03T05:28:31.759Z,1.00
2019-01-03T05:31:19.590Z,1.00
2019-01-03T05:34:08.672Z,1.00
2019-01-03T05:37:16.051Z,1.00
2019-01-03T05:40:19.064Z,1.00
2019-01-03T05:43:14.533Z,1.00
2019-01-03T05:46:09.584Z,1.00
2019-01-03T05:49:07.827Z,1.00
2019-01-03T05:51:58.121Z,1.00
2019-01-03T05:54:45.899Z,1.00
2019-01-03T05:57:47.293Z,1.00
2019-01-03T06:00:34.931Z,1.00
2019-01-03T06:03:22.521Z,1.00
2019-01-03T06:06:26.971Z,1.00
2019-01-03T06:09:16.206Z,1.00
2019-01-03T06:11:59.535Z,1.00
2019-01-03T06:14:51.886Z,1.00
2019-01-03T06:17:41.458Z,1.00
2019-01-03T06:20:27.845Z,1.00
2019-01-03T06:23:28.861Z,1.00
2019-01-03T06:26:16.378Z,1.00
2019-01-03T06:29:04.432Z,1.00
2019-01-03T06:31:52.220Z,1.00
2019-01-03T06:34:39.712Z,1.00
2019-01-03T06:37:22.698Z,1.00
2019-01-03T06:40:23.757Z,1.00
2019-01-03T06:43:12.924Z,1.00
2019-01-03T06:46:02.960Z,1.00
2019-01-03T06:49:07.120Z,1.00
2019-01-03T06:51:58.977Z,1.00
2019-01-03T06:54:59.500Z,1.00
2019-01-03T06:57:51.887Z,1.00
2019-01-03T07:00:49.794Z,1.00
2019-01-03T07:03:48.158Z,1.00
2019-01-03T07:06:43.107Z,1.00
2019-01-03T07:09:30.637Z,1.00
2019-01-03T07:12:20.951Z,1.00
2019-01-03T07:15:10.232Z,1.00
2019-01-03T07:18:07.873Z,1.00
2019-01-03T07:21:00.185Z,1.00
2019-01-03T07:24:04.170Z,1.00
2019-01-03T07:26:51.689Z,1.00
2019-01-03T07:29:47.831Z,1.00
2019-01-03T07:32:43.263Z,1.00
2019-01-03T07:35:31.098Z,1.00
2019-01-03T07:38:14.465Z,1.00
2019-01-03T07:41:12.380Z,1.00
2019-01-03T07:44:00.212Z,1.00
2019-01-03T07:46:49.332Z,1.00
2019-01-03T07:49:36.300Z,1.00
2019-01-03T07:52:29.265Z,1.00
2019-01-03T07:55:17.086Z,1.00
2019-01-03T07:58:04.922Z,1.00
2019-01-03T08:00:52.631Z,1.00
2019-01-03T08:03:57.504Z,1.00
2019-01-03T08:06:52.537Z,1.00
2019-01-03T08:09:47.690Z,1.00
2019-01-03T08:12:35.601Z,1.00
2019-01-03T08:15:36.825Z,1.00
2019-01-03T08:18:35.627Z,1.00
2019-01-03T08:21:23.339Z,1.00
2019-01-03T08:24:13.425Z,1.00
2019-01-03T08:27:05.623Z,1.00
2019-01-03T08:29:54.767Z,1.00
2019-01-03T08:32:58.913Z,1.00
2019-01-03T08:36:00.439Z,1.00
2019-01-03T08:38:55.613Z,1.00
2019-01-03T08:41:43.391Z,1.00
2019-01-03T08:44:41.810Z,1.00
2019-01-03T08:47:29.238Z,1.00
2019-01-03T08:50:21.300Z,1.00
2019-01-03T08:53:09.189Z,1.00
2019-01-03T08:56:04.430Z,1.00
2019-01-03T08:58:54.998Z,1.00
2019-01-03T09:01:49.981Z,1.00
2019-01-03T09:04:40.368Z,1.00
2019-01-03T09:07:35.812Z,1.00
2019-01-03T09:10:25.184Z,1.00
2019-01-03T09:13:21.453Z,1.00
2019-01-03T09:16:13.031Z,1.00
2019-01-03T09:19:00.612Z,1.00
2019-01-03T09:21:53.326Z,1.00
2019-01-03T09:24:42.695Z,1.00
2019-01-03T09:27:25.790Z,1.00
2019-01-03T09:30:20.972Z,1.00
2019-01-03T09:33:08.782Z,1.00
2019-01-03T09:35:58.867Z,1.00
2019-01-03T09:38:51.047Z,1.00
2019-01-03T09:41:46.763Z,1.00
2019-01-03T09:44:34.583Z,1.00
2019-01-03T09:47:04.921Z,1.00
2019-01-03T09:49:34.973Z,1.00
2019-01-03T09:52:05.051Z,1.00
2019-01-03T09:54:36.109Z,1.00
2019-01-03T09:57:06.211Z,1.00
2019-01-03T09:59:36.362Z,1.00
2019-01-03T10:02:07.113Z,1.00
2019-01-03T10:04:37.246Z,1.00
2019-01-03T10:07:07.433Z,1.00
2019-01-03T10:09:37.845Z,1.00
2019-01-03T10:12:07.972Z,1.00
2019-01-03T10:14:38.034Z,1.00
2019-01-03T10:17:08.124Z,1.00
2019-01-03T10:19:38.309Z,1.00
2019-01-03T10:22:08.371Z,1.00
2019-01-03T10:24:38.711Z,1.00
2019-01-03T10:27:09.044Z,1.00
2019-01-03T10:29:39.137Z,1.00
2019-01-03T10:32:09.198Z,1.00
2019-01-03T10:34:39.337Z,1.00
2019-01-03T10:37:09.490Z,1.00
2019-01-03T10:39:39.882Z,1.00
2019-01-03T10:42:10.111Z,1.00
2019-01-03T10:44:40.199Z,1.00
2019-01-03T10:47:10.307Z,1.00
2019-01-03T10:49:40.450Z,1.00
2019-01-03T10:52:10.619Z,1.00
2019-01-03T10:54:41.038Z,1.00
2019-01-03T10:57:11.408Z,1.00
2019-01-03T10:59:41.610Z,1.00
2019-01-03T11:02:12.103Z,1.00
2019-01-03T11:04:42.254Z,1.00
2019-01-03T11:07:12.408Z,1.00
2019-01-03T11:09:42.581Z,1.00
2019-01-03T11:12:12.650Z,1.00
2019-01-03T11:14:43.022Z,1.00
2019-01-03T11:17:13.373Z,1.00
2019-01-03T11:19:43.560Z,1.00
2019-01-03T11:22:13.753Z,1.00
2019-01-03T11:24:44.220Z,1.00
2019-01-03T11:27:14.361Z,1.00
2019-01-03T11:29:44.544Z,1.00
2019-01-03T11:32:14.575Z,1.00
2019-01-03T11:34:44.647Z,1.00
2019-01-03T11:37:16.372Z,1.00
2019-01-03T11:39:46.478Z,1.00
2019-01-03T11:42:16.620Z,1.00
2019-01-03T11:44:47.670Z,1.00
2019-01-03T11:47:17.887Z,1.00
2019-01-03T11:49:48.306Z,1.00
2019-01-03T11:52:18.566Z,1.00
2019-01-03T11:54:48.649Z,1.00
2019-01-03T11:57:18.836Z,1.00
2019-01-03T11:59:49.189Z,1.00
2019-01-03T12:02:25.419Z,1.00
2019-01-03T12:04:51.458Z,1.00
2019-01-03T12:07:21.507Z,1.00
2019-01-03T12:09:51.603Z,1.00
2019-01-03T12:12:21.778Z,1.00
2019-01-03T12:14:51.939Z,1.00
2019-01-03T12:17:22.393Z,1.00
2019-01-03T12:19:52.491Z,1.00
2019-01-03T12:22:22.585Z,1.00
2019-01-03T12:24:52.762Z,1.00
2019-01-03T12:27:22.886Z,1.00
2019-01-03T12:29:53.296Z,1.00
2019-01-03T12:32:23.670Z,1.00
2019-01-03T12:34:53.927Z,1.00
2019-01-03T12:37:24.017Z,1.00
2019-01-03T12:39:54.459Z,1.00
2019-01-03T12:42:24.589Z,1.00
2019-01-03T12:44:54.735Z,1.00
2019-01-03T12:47:24.823Z,1.00
2019-01-03T12:49:54.983Z,1.00
2019-01-03T12:52:25.163Z,1.00
2019-01-03T12:54:55.555Z,1.00
2019-01-03T12:57:25.687Z,1.00
2019-01-03T12:59:55.815Z,1.00
2019-01-03T13:02:25.923Z,1.00
2019-01-03T13:04:56.016Z,1.00
2019-01-03T13:07:26.250Z,1.00
2019-01-03T13:09:56.592Z,1.00
2019-01-03T13:12:26.811Z,1.00
2019-01-03T13:14:57.019Z,1.00
2019-01-03T13:17:27.523Z,1.00
2019-01-03T13:19:57.772Z,1.00
2019-01-03T13:22:30.767Z,1.00
2019-01-03T13:25:00.889Z,1.00
2019-01-03T13:27:31.088Z,1.00
2019-01-03T13:30:01.260Z,1.00
2019-01-03T13:32:31.631Z,1.00
2019-01-03T13:35:03.133Z,1.00
2019-01-03T13:37:33.239Z,1.00
2019-01-03T13:40:03.708Z,1.00
2019-01-03T13:42:33.838Z,1.00
2019-01-03T13:45:04.097Z,1.00
2019-01-03T13:47:34.259Z,1.00
2019-01-03T13:50:05.021Z,1.00
2019-01-03T13:52:35.091Z,1.00
2019-01-03T13:55:05.427Z,1.00
2019-01-03T13:57:35.871Z,1.00
2019-01-03T14:00:07.571Z,1.00
2019-01-03T14:02:37.902Z,1.00
2019-01-03T14:05:08.083Z,1.00
2019-01-03T14:07:38.186Z,1.00
2019-01-03T14:10:08.329Z,1.00
2019-01-03T14:12:38.975Z,1.00
2019-01-03T14:15:08.991Z,1.00
2019-01-03T14:17:39.294Z,1.00
2019-01-03T14:20:11.736Z,1.00
2019-01-03T14:22:42.000Z,1.00
2019-01-03T14:25:12.429Z,1.00
2019-01-03T14:27:42.929Z,1.00
2019-01-03T14:30:12.944Z,1.00
2019-01-03T14:32:43.039Z,1.00
2019-01-03T14:35:13.218Z,1.00
2019-01-03T14:37:44.257Z,1.00
2019-01-03T14:40:14.413Z,1.00
2019-01-03T14:42:44.650Z,1.00
2019-01-03T14:45:15.046Z,1.00
2019-01-03T14:47:45.207Z,1.00
2019-01-03T14:50:15.322Z,1.00
2019-01-03T14:52:45.598Z,1.00
2019-01-03T14:55:16.051Z,1.00
2019-01-03T14:57:46.231Z,1.00
2019-01-03T15:00:16.786Z,1.00
2019-01-03T15:02:47.205Z,1.00
2019-01-03T15:05:17.329Z,1.00
2019-01-03T15:07:47.507Z,1.00
2019-01-03T15:10:17.595Z,1.00
2019-01-03T15:12:48.842Z,1.00
2019-01-03T15:15:19.090Z,1.00
2019-01-03T15:17:49.228Z,1.00
2019-01-03T15:20:19.350Z,1.00
2019-01-03T15:22:49.497Z,1.00
2019-01-03T15:25:19.666Z,1.00
2019-01-03T15:27:50.108Z,1.00
2019-01-03T15:30:20.300Z,1.00
2019-01-03T15:32:50.486Z,1.00
2019-01-03T15:35:23.490Z,1.00
2019-01-03T15:37:52.411Z,1.00
2019-01-03T15:40:22.534Z,1.00
2019-01-03T15:42:52.599Z,1.00
2019-01-03T15:45:22.567Z,1.00
2019-01-03T15:47:52.702Z,1.00
2019-01-03T15:50:22.841Z,1.00
2019-01-03T15:52:53.364Z,1.00
2019-01-03T15:55:23.432Z,1.00
2019-01-03T15:57:53.521Z,1.00
2019-01-03T16:00:23.709Z,1.00
2019-01-03T16:02:53.888Z,1.00
2019-01-03T16:05:24.271Z,1.00
2019-01-03T16:07:54.498Z,1.00
2019-01-03T16:10:24.651Z,1.00
2019-01-03T16:12:54.742Z,1.00
2019-01-03T16:15:24.808Z,1.00
2019-01-03T16:17:54.892Z,1.00
2019-01-03T16:20:25.862Z,1.00
2019-01-03T16:22:56.435Z,1.00
2019-01-03T16:25:26.641Z,1.00
2019-01-03T16:27:56.833Z,1.00
2019-01-03T16:30:27.154Z,1.00
2019-01-03T16:32:57.569Z,1.00
2019-01-03T16:35:27.681Z,1.00
2019-01-03T16:37:57.824Z,1.00
2019-01-03T16:40:27.935Z,1.00
2019-01-03T16:42:59.002Z,1.00
2019-01-03T16:45:29.564Z,1.00
2019-01-03T16:47:59.711Z,1.00
2019-01-03T16:50:29.802Z,1.00
2019-01-03T16:52:59.887Z,1.00
2019-01-03T16:55:29.979Z,1.00
2019-01-03T16:58:00.206Z,1.00
2019-01-03T17:00:30.593Z,1.00
2019-01-03T17:03:00.914Z,1.00
2019-01-03T17:05:31.073Z,1.00
2019-01-03T17:08:01.608Z,1.00
2019-01-03T17:10:31.858Z,1.00
2019-01-03T17:13:01.982Z,1.00
2019-01-03T17:15:32.266Z,1.00
2019-01-03T17:18:03.754Z,1.00
2019-01-03T17:20:33.917Z,1.00
2019-01-03T17:23:04.163Z,1.00
2019-01-03T17:25:34.365Z,1.00
2019-01-03T17:28:04.751Z,1.00
2019-01-03T17:30:35.287Z,1.00
2019-01-03T17:33:05.524Z,1.00
2019-01-03T17:35:35.909Z,1.00
2019-01-03T17:38:06.135Z,1.00
2019-01-03T17:40:36.350Z,1.00
2019-01-03T17:43:06.764Z,1.00
2019-01-03T17:45:37.025Z,1.00
2019-01-03T17:48:07.235Z,1.00
2019-01-03T17:50:37.391Z,1.00
2019-01-03T17:53:07.741Z,1.00
2019-01-03T17:55:37.913Z,1.00
2019-01-03T17:58:08.175Z,1.00
2019-01-03T18:00:39.256Z,1.00
2019-01-03T18:03:09.384Z,1.00
2019-01-03T18:05:39.646Z,1.00
2019-01-03T18:08:10.186Z,1.00
2019-01-03T18:10:41.239Z,1.00
2019-01-03T18:13:11.346Z,1.00
2019-01-03T18:15:41.455Z,1.00
2019-01-03T18:18:11.534Z,1.00
2019-01-03T18:20:42.043Z,1.00
2019-01-03T18:23:12.195Z,1.00
2019-01-03T18:25:42.465Z,1.00
2019-01-03T18:28:12.727Z,1.00
2019-01-03T18:30:43.185Z,1.00
2019-01-03T18:33:13.557Z,1.00
2019-01-03T18:35:43.960Z,1.00
2019-01-03T18:38:14.152Z,1.00
2019-01-03T18:40:44.251Z,1.00
2019-01-03T18:43:14.465Z,1.00
2019-01-03T18:45:44.651Z,1.30
2019-01-03T18:48:15.124Z,1.00
2019-01-03T18:50:46.753Z,1.00
2019-01-03T18:53:17.360Z,1.00
2019-01-03T18:55:47.807Z,2.40
2019-01-03T18:58:18.199Z,3.50
2019-01-03T19:00:48.310Z,3.30
2019-01-03T19:03:18.491Z,2.30
2019-01-03T19:05:48.700Z,4.60
2019-01-03T19:08:18.881Z,3.30
2019-01-03T19:10:49.259Z,2.50
2019-01-03T19:13:19.483Z,3.30
2019-01-03T19:15:49.634Z,6.30
2019-01-03T19:18:19.827Z,7.00
2019-01-03T19:20:50.353Z,4.90
2019-01-03T19:23:20.656Z,7.60
2019-01-03T19:25:50.750Z,6.20
2019-01-03T19:28:20.929Z,5.50
2019-01-03T19:30:51.459Z,7.90
2019-01-03T19:33:21.548Z,9.40
2019-01-03T19:35:51.779Z,7.40
2019-01-03T19:38:21.824Z,8.00
2019-01-03T19:40:52.008Z,7.60
2019-01-03T19:43:22.769Z,7.10
2019-01-03T19:45:53.321Z,7.60
2019-01-03T19:48:23.555Z,12.70
2019-01-03T19:50:53.818Z,10.10
2019-01-03T19:53:24.110Z,9.80
2019-01-03T19:55:54.520Z,11.80
2019-01-03T19:58:24.646Z,11.40
2019-01-03T20:00:54.827Z,13.40
2019-01-03T20:03:24.886Z,11.80
2019-01-03T20:05:55.015Z,12.90
2019-01-03T20:08:25.526Z,11.80
2019-01-03T20:10:55.697Z,13.80
2019-01-03T20:13:25.828Z,14.20
2019-01-03T20:15:55.986Z,13.50
2019-01-03T20:18:26.163Z,12.80
2019-01-03T20:20:56.531Z,9.70
2019-01-03T20:23:26.702Z,13.80
2019-01-03T20:25:56.810Z,11.70
2019-01-03T20:28:27.021Z,8.20
2019-01-03T20:30:57.300Z,13.00
2019-01-03T20:33:27.751Z,12.10
2019-01-03T20:35:57.885Z,11.70
2019-01-03T20:38:28.101Z,11.90
2019-01-03T20:40:58.557Z,13.00
2019-01-03T20:43:28.778Z,13.90
2019-01-03T20:45:58.995Z,14.10
2019-01-03T20:48:29.214Z,15.70
2019-01-03T20:50:59.750Z,13.80
2019-01-03T20:53:29.823Z,17.30
2019-01-03T20:55:59.927Z,18.90
2019-01-03T20:58:30.022Z,19.70
2019-01-03T21:01:00.133Z,20.60
2019-01-03T21:03:30.336Z,19.50
2019-01-03T21:06:01.960Z,20.20
2019-01-03T21:08:32.207Z,22.60
2019-01-03T21:11:02.737Z,23.70
2019-01-03T21:13:33.280Z,23.70
2019-01-03T21:16:04.345Z,25.70
2019-01-03T21:18:34.786Z,28.70
2019-01-03T21:21:06.367Z,30.40
2019-01-03T21:23:36.863Z,28.60
2019-01-03T21:26:07.165Z,29.40
2019-01-03T21:28:37.426Z,30.30
2019-01-03T21:31:07.847Z,31.80
2019-01-03T21:33:37.924Z,32.60
2019-01-03T21:36:08.127Z,31.80
2019-01-03T21:38:38.259Z,31.80
2019-01-03T21:41:08.428Z,31.80
2019-01-03T21:43:39.735Z,31.80
2019-01-03T21:46:10.155Z,31.40
2019-01-03T21:48:40.456Z,31.80
2019-01-03T21:51:10.852Z,32.20
2019-01-03T21:53:41.097Z,30.30
2019-01-03T21:56:11.430Z,33.50
2019-01-03T21:58:42.531Z,33.20
2019-01-03T22:01:13.008Z,33.30
2019-01-03T22:03:43.080Z,30.00
2019-01-03T22:06:13.255Z,30.90
2019-01-03T22:08:43.379Z,29.70
2019-01-03T22:11:13.527Z,29.50
2019-01-03T22:13:44.029Z,26.30
2019-01-03T22:16:14.426Z,26.40
2019-01-03T22:18:44.527Z,26.80
2019-01-03T22:21:14.606Z,27.70
2019-01-03T22:23:44.951Z,28.10
2019-01-03T22:26:15.239Z,28.30
2019-01-03T22:28:45.350Z,26.30
2019-01-03T22:31:15.613Z,28.60
2019-01-03T22:33:46.060Z,28.40
2019-01-03T22:36:16.483Z,27.60
2019-01-03T22:38:46.585Z,27.00
2019-01-03T22:41:16.716Z,26.10
2019-01-03T22:43:47.236Z,26.30
2019-01-03T22:46:17.439Z,27.00
2019-01-03T22:48:47.582Z,25.20
2019-01-03T22:51:20.580Z,24.40
2019-01-03T22:53:53.418Z,25.30
2019-01-03T22:56:23.820Z,24.80
2019-01-03T22:58:54.188Z,23.80
2019-01-03T23:01:24.625Z,22.80
2019-01-03T23:03:55.094Z,23.80
2019-01-03T23:06:25.472Z,25.30
2019-01-03T23:08:55.705Z,25.90
2019-01-03T23:11:25.856Z,24.00
2019-01-03T23:13:56.379Z,25.40
2019-01-03T23:16:26.536Z,25.70
2019-01-03T23:18:56.890Z,24.70
2019-01-03T23:21:27.291Z,25.80
2019-01-03T23:23:57.395Z,25.10
2019-01-03T23:26:27.479Z,23.80
2019-01-03T23:28:57.579Z,24.20
2019-01-03T23:31:27.714Z,24.50
2019-01-03T23:33:57.866Z,26.80
2019-01-03T23:36:28.021Z,27.00
2019-01-03T23:38:58.441Z,26.80
2019-01-03T23:41:28.547Z,29.60
2019-01-03T23:43:58.591Z,28.40
2019-01-03T23:46:28.844Z,29.10
2019-01-03T23:48:58.960Z,27.70
2019-01-03T23:51:29.484Z,29.00
2019-01-03T23:53:59.573Z,31.80
2019-01-03T23:56:29.728Z,30.00
2019-01-03T23:58:59.875Z,30.00
